»·PEaware :: WAT390 KBFI-KRNO

WAT390 :: KBFI-KRNO

FLIGHT INFORMATION

Flight Status: Arrived
Operator:
Walker Air Transport
More flights by this operator :: More flights under this callsign
Pilot: Ewen S. (18928)
Aircraft: BOEING 737-200
(B732)
More flights by this aircraft type
Origin: KBFI Boeing Field/King Co Intl
United States
Destination: KRNO Reno/Tahoe Intl
United States
More flights between these airports :: More routes between these airports
Route: BTG J67 LKV V165 FMG
File this flight plan on PilotEdge
Remarks:
Altitude:
(Current/Filed)
33,000ft
Speed:
(Current/Filed)
450kts
Departed: 22-Feb-21 03:20 PM
Arrived: 22-Feb-21 04:38 PM
Distance/Time
Traveled:
494nm/1:18
Distance/Time
To Go:
Arrived

Flight Plot

Page will automatically refresh every two minutes.

Flight plan parsing failed; only flown route is shown


Map Options




Map Legend


Flown Route
Filed Route
Departure Airport
Arrival Airport
Navaid (VOR, NDB)
Fix

Horizontal Profiles

Position Reports

Time Latitude Longitude Heading Altitude Ground
Speed
22-Feb-21 15:01 47.534814 -122.302311 50 27ft 0kts
22-Feb-21 15:02 47.534814 -122.302311 50 27ft 0kts
22-Feb-21 15:03 47.534814 -122.302311 50 27ft 0kts
22-Feb-21 15:04 47.534814 -122.302311 50 27ft 0kts
22-Feb-21 15:05 47.534814 -122.302311 50 27ft 0kts
22-Feb-21 15:06 47.534814 -122.302311 50 27ft 0kts
22-Feb-21 15:07 47.534814 -122.302311 50 27ft 0kts
22-Feb-21 15:08 47.534814 -122.302311 50 27ft 0kts
22-Feb-21 15:09 47.534814 -122.302311 50 27ft 0kts
22-Feb-21 15:10 47.534814 -122.302311 50 27ft 0kts
22-Feb-21 15:11 47.534814 -122.302311 50 27ft 0kts
22-Feb-21 15:12 47.534814 -122.302311 50 27ft 0kts
22-Feb-21 15:13 47.534814 -122.302312 50 27ft 0kts
22-Feb-21 15:14 47.534399 -122.302261 310 27ft 0kts
22-Feb-21 15:15 47.534397 -122.302258 310 27ft 0kts
22-Feb-21 15:16 47.535064 -122.303453 306 27ft 19kts
22-Feb-21 15:17 47.540578 -122.308824 322 27ft 0kts
22-Feb-21 15:18 47.540167 -122.311087 151 27ft 0kts
22-Feb-21 15:19 47.518023 -122.290916 150 464ft 194kts
22-Feb-21 15:20 47.467220 -122.248436 169 2014ft 244kts
22-Feb-21 15:21 47.401065 -122.248547 185 2794ft 231kts
22-Feb-21 15:22 47.334712 -122.252408 184 5628ft 244kts
22-Feb-21 15:23 47.266576 -122.253640 185 9343ft 254kts
22-Feb-21 15:24 47.189397 -122.248775 185 12097ft 302kts
22-Feb-21 15:25 47.103225 -122.236275 185 15321ft 317kts
22-Feb-21 15:26 47.014428 -122.229588 195 18052ft 321kts
22-Feb-21 15:27 46.925440 -122.241626 200 20230ft 326kts
22-Feb-21 15:28 46.838071 -122.266670 208 21802ft 324kts
22-Feb-21 15:29 46.751620 -122.305734 212 23262ft 326kts
22-Feb-21 15:30 46.663170 -122.346366 208 24582ft 340kts
22-Feb-21 15:31 46.568471 -122.376729 207 25728ft 349kts
22-Feb-21 15:32 46.474164 -122.405656 207 26702ft 356kts
22-Feb-21 15:33 46.374294 -122.431587 202 27625ft 373kts
22-Feb-21 15:34 46.271201 -122.445461 201 29257ft 360kts
22-Feb-21 15:35 46.172366 -122.463021 207 29824ft 362kts
22-Feb-21 15:36 46.081959 -122.487321 208 30646ft 360kts
22-Feb-21 15:37 45.986604 -122.525167 213 31279ft 353kts
22-Feb-21 15:38 45.890621 -122.560839 203 31868ft 376kts
22-Feb-21 15:39 45.820660 -122.571765 202 32874ft 362kts
22-Feb-21 15:40 45.718003 -122.577563 178 33216ft 411kts
22-Feb-21 15:41 45.613209 -122.489777 171 33302ft 434kts
22-Feb-21 15:42 45.500002 -122.415103 171 33302ft 449kts
22-Feb-21 15:43 45.381298 -122.350068 171 33304ft 460kts
22-Feb-21 15:44 45.261508 -122.280105 168 33303ft 471kts
22-Feb-21 15:45 45.140820 -122.202181 165 33303ft 480kts
22-Feb-21 15:46 45.021113 -122.120499 164 33312ft 486kts
22-Feb-21 15:47 44.900008 -122.037300 163 33290ft 491kts
22-Feb-21 15:48 44.815161 -121.980707 163 33262ft 494kts
22-Feb-21 15:49 44.693411 -121.901813 163 33234ft 497kts
22-Feb-21 15:50 44.567431 -121.821670 163 33239ft 499kts
22-Feb-21 15:51 44.440086 -121.741062 162 33248ft 501kts
22-Feb-21 15:52 44.313076 -121.660552 162 33305ft 502kts
22-Feb-21 15:53 44.185548 -121.579466 162 33302ft 504kts
22-Feb-21 15:54 44.058072 -121.498177 161 33302ft 506kts
22-Feb-21 15:55 43.929823 -121.417293 161 33302ft 506kts
22-Feb-21 15:56 43.808396 -121.342685 162 33305ft 506kts
22-Feb-21 15:57 43.684604 -121.264530 154 33342ft 510kts
22-Feb-21 15:58 43.567097 -121.152488 153 33340ft 510kts
22-Feb-21 15:59 43.441930 -121.061440 163 33319ft 501kts
22-Feb-21 16:00 43.310706 -120.997634 169 33309ft 495kts
22-Feb-21 16:01 43.179419 -120.940414 166 33303ft 497kts
22-Feb-21 16:02 43.051634 -120.865595 159 33353ft 502kts
22-Feb-21 16:03 42.928183 -120.775331 157 33357ft 503kts
22-Feb-21 16:04 42.810645 -120.696635 161 33356ft 499kts
22-Feb-21 16:05 42.682852 -120.622574 162 33361ft 497kts
22-Feb-21 16:06 42.558135 -120.547341 161 33384ft 497kts
22-Feb-21 16:07 42.428223 -120.485259 171 33385ft 486kts
22-Feb-21 16:08 42.295912 -120.444663 173 33384ft 484kts
22-Feb-21 16:09 42.164355 -120.406990 173 33384ft 483kts
22-Feb-21 16:10 42.033196 -120.368352 173 33382ft 483kts
22-Feb-21 16:11 41.909958 -120.330110 172 33372ft 482kts
22-Feb-21 16:12 41.782760 -120.289739 172 33374ft 480kts
22-Feb-21 16:13 41.652356 -120.248694 172 33375ft 478kts
22-Feb-21 16:14 41.522846 -120.208669 173 33378ft 477kts
22-Feb-21 16:15 41.394151 -120.168728 173 33374ft 474kts
22-Feb-21 16:16 41.265572 -120.130547 173 33375ft 472kts
22-Feb-21 16:17 41.138037 -120.093605 173 33375ft 471kts
22-Feb-21 16:18 41.013388 -120.057010 172 32869ft 440kts
22-Feb-21 16:20 40.899631 -120.022736 172 30737ft 428kts
22-Feb-21 16:21 40.788204 -119.989195 172 28723ft 415kts
22-Feb-21 16:22 40.677248 -119.955900 171 26609ft 404kts
22-Feb-21 16:23 40.568441 -119.923618 171 24570ft 394kts
22-Feb-21 16:24 40.462431 -119.892412 170 22608ft 384kts
22-Feb-21 16:25 40.359920 -119.861876 170 20756ft 373kts
22-Feb-21 16:26 40.260730 -119.831881 170 18912ft 365kts
22-Feb-21 16:27 40.162574 -119.802275 170 17052ft 358kts
22-Feb-21 16:28 40.067250 -119.774640 170 15602ft 339kts
22-Feb-21 16:29 39.976761 -119.752469 178 13267ft 326kts
22-Feb-21 16:30 39.890797 -119.741293 182 11471ft 287kts
22-Feb-21 16:31 39.816259 -119.762104 189 9330ft 270kts
22-Feb-21 16:32 39.746503 -119.768794 181 8396ft 216kts
22-Feb-21 16:33 39.693510 -119.769539 179 8222ft 182kts
22-Feb-21 16:34 39.638896 -119.768972 179 7106ft 210kts
22-Feb-21 16:35 39.580314 -119.769011 179 5830ft 189kts
22-Feb-21 16:36 39.537502 -119.769233 177 5005ft 142kts
22-Feb-21 16:37 39.500016 -119.769257 179 4420ft 95kts
22-Feb-21 16:38 39.492917 -119.770267 258 4420ft 0kts
22-Feb-21 16:39 39.494060 -119.771538 358 4420ft 17kts
22-Feb-21 16:40 39.500102 -119.771539 1 4420ft 20kts
22-Feb-21 16:40 39.504426 -119.771491 359 4420ft 16kts
22-Feb-21 16:42 39.509070 -119.772111 267 4420ft 11kts
22-Feb-21 16:43 39.509708 -119.774313 323 4420ft 0kts

Navigation Log

Ident Type
Flight plan parsing failed, navigation log unavailable